sensor_id;sensor_type;location;lat;lon;timestamp;pressure;altitude;pressure_sealevel;temperature;humidity
65716;BME280;63484;52.054;8.518;2023-03-04T00:03:59;101433.97;;;4.87;77.31
65716;BME280;63484;52.054;8.518;2023-03-04T00:09:00;101441.63;;;4.94;77.22
65716;BME280;63484;52.054;8.518;2023-03-04T00:14:03;101443.97;;;5.03;77.02
65716;BME280;63484;52.054;8.518;2023-03-04T00:19:05;101445.63;;;5.07;76.32
65716;BME280;63484;52.054;8.518;2023-03-04T00:24:07;101442.28;;;5.02;75.79
65716;BME280;63484;52.054;8.518;2023-03-04T00:29:08;101442.19;;;5.05;76.72
65716;BME280;63484;52.054;8.518;2023-03-04T00:34:11;101433.66;;;5.00;76.49
65716;BME280;63484;52.054;8.518;2023-03-04T00:39:13;101433.13;;;5.20;74.85
65716;BME280;63484;52.054;8.518;2023-03-04T00:44:14;101435.91;;;5.14;75.38
65716;BME280;63484;52.054;8.518;2023-03-04T00:49:17;101437.00;;;5.05;76.38
65716;BME280;63484;52.054;8.518;2023-03-04T00:54:18;101435.25;;;5.04;76.36
65716;BME280;63484;52.054;8.518;2023-03-04T00:59:20;101435.88;;;5.15;75.16
65716;BME280;63484;52.054;8.518;2023-03-04T01:04:23;101438.69;;;5.06;75.56
65716;BME280;63484;52.054;8.518;2023-03-04T01:09:24;101435.97;;;5.11;75.48
65716;BME280;63484;52.054;8.518;2023-03-04T01:14:26;101429.88;;;5.12;75.85
65716;BME280;63484;52.054;8.518;2023-03-04T01:19:29;101422.94;;;5.11;75.09
65716;BME280;63484;52.054;8.518;2023-03-04T01:24:32;101423.06;;;5.06;75.97
65716;BME280;63484;52.054;8.518;2023-03-04T01:29:34;101414.50;;;5.01;76.12
65716;BME280;63484;52.054;8.518;2023-03-04T01:34:39;101411.94;;;5.00;76.77
65716;BME280;63484;52.054;8.518;2023-03-04T01:39:40;101407.59;;;5.00;77.30
65716;BME280;63484;52.054;8.518;2023-03-04T01:44:42;101392.78;;;5.02;76.87
65716;BME280;63484;52.054;8.518;2023-03-04T01:49:47;101392.13;;;5.26;76.45
65716;BME280;63484;52.054;8.518;2023-03-04T01:54:51;101381.41;;;5.05;76.97
65716;BME280;63484;52.054;8.518;2023-03-04T02:00:14;101374.53;;;5.02;77.22
65716;BME280;63484;52.054;8.518;2023-03-04T02:05:20;101371.13;;;5.00;77.40
65716;BME280;63484;52.054;8.518;2023-03-04T02:10:22;101356.34;;;4.99;77.58
65716;BME280;63484;52.054;8.518;2023-03-04T02:15:24;101361.56;;;5.01;77.81
65716;BME280;63484;52.054;8.518;2023-03-04T02:20:36;101354.44;;;5.06;77.46
65716;BME280;63484;52.054;8.518;2023-03-04T02:25:43;101358.03;;;5.02;78.18
65716;BME280;63484;52.054;8.518;2023-03-04T02:30:47;101355.44;;;5.02;78.79
65716;BME280;63484;52.054;8.518;2023-03-04T02:35:49;101347.56;;;5.03;78.36
65716;BME280;63484;52.054;8.518;2023-03-04T02:40:52;101343.22;;;5.04;78.11
65716;BME280;63484;52.054;8.518;2023-03-04T02:45:57;101343.31;;;5.01;78.60
65716;BME280;63484;52.054;8.518;2023-03-04T02:50:59;101346.75;;;5.01;78.54
65716;BME280;63484;52.054;8.518;2023-03-04T02:56:01;101348.53;;;4.99;78.78
65716;BME280;63484;52.054;8.518;2023-03-04T03:01:08;101339.75;;;5.03;78.77
65716;BME280;63484;52.054;8.518;2023-03-04T03:06:10;101340.44;;;5.10;78.20
65716;BME280;63484;52.054;8.518;2023-03-04T03:11:11;101336.75;;;5.18;77.90
65716;BME280;63484;52.054;8.518;2023-03-04T03:16:14;101329.94;;;5.13;76.95
65716;BME280;63484;52.054;8.518;2023-03-04T03:21:16;101330.53;;;5.22;75.88
65716;BME280;63484;52.054;8.518;2023-03-04T03:26:19;101322.06;;;5.14;76.33
65716;BME280;63484;52.054;8.518;2023-03-04T03:31:22;101319.50;;;5.13;76.66
65716;BME280;63484;52.054;8.518;2023-03-04T03:36:23;101324.63;;;5.16;76.34
65716;BME280;63484;52.054;8.518;2023-03-04T03:41:24;101315.16;;;5.13;76.70
65716;BME280;63484;52.054;8.518;2023-03-04T03:46:27;101316.81;;;5.16;75.97
65716;BME280;63484;52.054;8.518;2023-03-04T03:51:29;101311.66;;;5.14;75.77
65716;BME280;63484;52.054;8.518;2023-03-04T03:56:30;101314.22;;;5.16;75.96
65716;BME280;63484;52.054;8.518;2023-03-04T04:01:33;101313.34;;;5.17;76.22
65716;BME280;63484;52.054;8.518;2023-03-04T04:06:34;101312.44;;;5.18;76.30
65716;BME280;63484;52.054;8.518;2023-03-04T04:11:35;101296.06;;;5.13;76.17
65716;BME280;63484;52.054;8.518;2023-03-04T04:16:38;101300.34;;;5.15;76.48
65716;BME280;63484;52.054;8.518;2023-03-04T04:21:40;101301.22;;;5.14;77.25
65716;BME280;63484;52.054;8.518;2023-03-04T04:26:41;101298.63;;;5.14;77.87
65716;BME280;63484;52.054;8.518;2023-03-04T04:31:44;101299.41;;;5.18;77.67
65716;BME280;63484;52.054;8.518;2023-03-04T04:36:46;101289.16;;;5.12;78.54
65716;BME280;63484;52.054;8.518;2023-03-04T04:41:47;101297.88;;;5.09;78.47
65716;BME280;63484;52.054;8.518;2023-03-04T04:46:50;101287.56;;;5.06;78.74
65716;BME280;63484;52.054;8.518;2023-03-04T04:51:52;101278.81;;;5.09;79.00
65716;BME280;63484;52.054;8.518;2023-03-04T04:56:53;101285.88;;;5.05;79.12
65716;BME280;63484;52.054;8.518;2023-03-04T05:01:56;101290.16;;;5.06;78.81
65716;BME280;63484;52.054;8.518;2023-03-04T05:06:57;101297.00;;;5.10;78.57
65716;BME280;63484;52.054;8.518;2023-03-04T05:11:58;101282.97;;;5.14;78.53
65716;BME280;63484;52.054;8.518;2023-03-04T05:17:01;101288.97;;;5.18;78.37
65716;BME280;63484;52.054;8.518;2023-03-04T05:22:03;101286.31;;;5.19;79.45
65716;BME280;63484;52.054;8.518;2023-03-04T05:27:04;101300.41;;;5.14;80.13
65716;BME280;63484;52.054;8.518;2023-03-04T05:32:07;101295.13;;;5.15;80.36
65716;BME280;63484;52.054;8.518;2023-03-04T05:37:08;101294.41;;;5.10;81.16
65716;BME280;63484;52.054;8.518;2023-03-04T05:42:10;101300.41;;;5.14;81.91
65716;BME280;63484;52.054;8.518;2023-03-04T05:47:13;101297.88;;;5.09;82.21
65716;BME280;63484;52.054;8.518;2023-03-04T05:52:14;101296.28;;;5.05;83.87
65716;BME280;63484;52.054;8.518;2023-03-04T05:57:15;101295.66;;;4.97;86.03
65716;BME280;63484;52.054;8.518;2023-03-04T06:02:18;101299.13;;;4.96;86.62
65716;BME280;63484;52.054;8.518;2023-03-04T06:07:20;101302.97;;;4.83;87.50
65716;BME280;63484;52.054;8.518;2023-03-04T06:12:21;101301.59;;;4.70;89.23
65716;BME280;63484;52.054;8.518;2023-03-04T06:17:24;101294.03;;;4.61;89.53
65716;BME280;63484;52.054;8.518;2023-03-04T06:22:25;101304.47;;;4.60;89.50
65716;BME280;63484;52.054;8.518;2023-03-04T06:27:26;101303.50;;;4.64;89.59
65716;BME280;63484;52.054;8.518;2023-03-04T06:32:29;101298.09;;;4.71;88.75
65716;BME280;63484;52.054;8.518;2023-03-04T06:37:31;101299.44;;;4.86;88.61
65716;BME280;63484;52.054;8.518;2023-03-04T06:42:32;101303.59;;;4.91;88.11
65716;BME280;63484;52.054;8.518;2023-03-04T06:47:35;101303.56;;;4.94;87.43
65716;BME280;63484;52.054;8.518;2023-03-04T06:52:37;101305.75;;;5.08;87.42
65716;BME280;63484;52.054;8.518;2023-03-04T06:57:38;101308.81;;;5.23;87.14
65716;BME280;63484;52.054;8.518;2023-03-04T07:02:41;101311.91;;;5.36;86.49
65716;BME280;63484;52.054;8.518;2023-03-04T07:07:43;101308.25;;;5.41;86.16
65716;BME280;63484;52.054;8.518;2023-03-04T07:12:44;101309.38;;;5.62;85.70
65716;BME280;63484;52.054;8.518;2023-03-04T07:17:47;101309.97;;;5.72;85.23
65716;BME280;63484;52.054;8.518;2023-03-04T07:22:48;101309.56;;;5.85;84.31
65716;BME280;63484;52.054;8.518;2023-03-04T07:27:50;101308.25;;;6.00;84.16
65716;BME280;63484;52.054;8.518;2023-03-04T07:32:52;101306.22;;;5.80;85.71
65716;BME280;63484;52.054;8.518;2023-03-04T07:37:57;101299.63;;;6.24;84.54
65716;BME280;63484;52.054;8.518;2023-03-04T07:42:58;101304.38;;;6.37;83.42
65716;BME280;63484;52.054;8.518;2023-03-04T07:48:03;101307.28;;;6.02;84.66
65716;BME280;63484;52.054;8.518;2023-03-04T07:53:04;101305.69;;;5.97;85.57
65716;BME280;63484;52.054;8.518;2023-03-04T07:58:06;101306.28;;;5.79;85.89
65716;BME280;63484;52.054;8.518;2023-03-04T08:03:09;101310.34;;;5.87;85.15
65716;BME280;63484;52.054;8.518;2023-03-04T08:08:10;101311.88;;;5.94;86.22
65716;BME280;63484;52.054;8.518;2023-03-04T08:13:11;101309.22;;;5.96;86.29
65716;BME280;63484;52.054;8.518;2023-03-04T08:18:14;101319.00;;;5.89;86.78
65716;BME280;63484;52.054;8.518;2023-03-04T08:23:16;101309.72;;;5.79;87.26
65716;BME280;63484;52.054;8.518;2023-03-04T08:28:17;101313.94;;;5.85;87.51
65716;BME280;63484;52.054;8.518;2023-03-04T08:33:20;101314.53;;;5.93;88.27
65716;BME280;63484;52.054;8.518;2023-03-04T08:38:21;101304.66;;;6.02;87.90
65716;BME280;63484;52.054;8.518;2023-03-04T08:43:25;101296.97;;;6.25;87.18
65716;BME280;63484;52.054;8.518;2023-03-04T08:48:28;101295.94;;;6.29;86.19
65716;BME280;63484;52.054;8.518;2023-03-04T08:53:29;101294.72;;;6.39;85.78
65716;BME280;63484;52.054;8.518;2023-03-04T08:58:30;101291.19;;;6.40;85.97
65716;BME280;63484;52.054;8.518;2023-03-04T09:03:33;101292.16;;;6.38;86.51
65716;BME280;63484;52.054;8.518;2023-03-04T09:08:35;101290.03;;;6.49;87.09
65716;BME280;63484;52.054;8.518;2023-03-04T09:13:37;101298.25;;;6.38;88.16
65716;BME280;63484;52.054;8.518;2023-03-04T09:18:40;101305.66;;;6.24;87.87
65716;BME280;63484;52.054;8.518;2023-03-04T09:23:42;101294.88;;;6.35;88.46
65716;BME280;63484;52.054;8.518;2023-03-04T09:28:43;101303.91;;;6.25;89.45
65716;BME280;63484;52.054;8.518;2023-03-04T09:33:46;101305.66;;;6.24;90.11
65716;BME280;63484;52.054;8.518;2023-03-04T09:38:48;101309.84;;;6.30;89.85
65716;BME280;63484;52.054;8.518;2023-03-04T09:43:49;101302.41;;;6.18;91.41
65716;BME280;63484;52.054;8.518;2023-03-04T09:48:54;101302.47;;;6.16;91.93
65716;BME280;63484;52.054;8.518;2023-03-04T09:54:04;101294.97;;;6.58;91.00
65716;BME280;63484;52.054;8.518;2023-03-04T09:59:14;101302.22;;;6.50;90.44
65716;BME280;63484;52.054;8.518;2023-03-04T10:04:28;101295.97;;;6.54;92.38
65716;BME280;63484;52.054;8.518;2023-03-04T10:09:36;101290.81;;;6.52;92.92
65716;BME280;63484;52.054;8.518;2023-03-04T10:14:45;101286.91;;;6.64;92.59
65716;BME280;63484;52.054;8.518;2023-03-04T10:19:54;101285.75;;;6.48;93.63
65716;BME280;63484;52.054;8.518;2023-03-04T10:25:04;101278.66;;;6.51;94.28
65716;BME280;63484;52.054;8.518;2023-03-04T10:30:17;101275.66;;;6.86;92.30
65716;BME280;63484;52.054;8.518;2023-03-04T10:35:25;101275.63;;;7.11;90.82
65716;BME280;63484;52.054;8.518;2023-03-04T10:40:28;101277.09;;;6.95;91.99
65716;BME280;63484;52.054;8.518;2023-03-04T10:45:29;101267.88;;;6.85;92.58
65716;BME280;63484;52.054;8.518;2023-03-04T10:50:35;101270.16;;;6.94;92.07
65716;BME280;63484;52.054;8.518;2023-03-04T10:55:42;101266.31;;;7.27;89.12
65716;BME280;63484;52.054;8.518;2023-03-04T11:00:51;101267.63;;;7.82;86.94
65716;BME280;63484;52.054;8.518;2023-03-04T11:06:11;101256.19;;;8.06;84.18
65716;BME280;63484;52.054;8.518;2023-03-04T11:11:21;101259.03;;;8.21;81.41
65716;BME280;63484;52.054;8.518;2023-03-04T11:16:25;101250.88;;;8.07;83.13
65716;BME280;63484;52.054;8.518;2023-03-04T11:21:33;101255.53;;;7.79;82.56
65716;BME280;63484;52.054;8.518;2023-03-04T11:26:40;101259.81;;;7.60;82.87
65716;BME280;63484;52.054;8.518;2023-03-04T11:31:47;101260.56;;;7.41;82.45
65716;BME280;63484;52.054;8.518;2023-03-04T11:36:54;101261.69;;;7.34;82.31
65716;BME280;63484;52.054;8.518;2023-03-04T11:42:00;101259.59;;;6.97;84.23
65716;BME280;63484;52.054;8.518;2023-03-04T11:47:35;101267.28;;;6.77;86.69
65716;BME280;63484;52.054;8.518;2023-03-04T11:58:18;101246.88;;;7.34;86.08
65716;BME280;63484;52.054;8.518;2023-03-04T12:03:40;101233.84;;;7.97;83.29
65716;BME280;63484;52.054;8.518;2023-03-04T12:08:53;101230.66;;;8.53;81.76
65716;BME280;63484;52.054;8.518;2023-03-04T12:14:10;101220.00;;;8.76;76.79
65716;BME280;63484;52.054;8.518;2023-03-04T12:19:24;101207.13;;;8.51;72.79
65716;BME280;63484;52.054;8.518;2023-03-04T12:24:40;101200.38;;;8.46;71.14
65716;BME280;63484;52.054;8.518;2023-03-04T12:29:49;101199.94;;;8.36;70.73
65716;BME280;63484;52.054;8.518;2023-03-04T12:35:13;101183.84;;;8.25;70.78
65716;BME280;63484;52.054;8.518;2023-03-04T12:40:26;101185.19;;;8.54;70.54
65716;BME280;63484;52.054;8.518;2023-03-04T12:45:39;101185.16;;;8.74;68.88
65716;BME280;63484;52.054;8.518;2023-03-04T12:50:53;101176.22;;;8.78;69.52
65716;BME280;63484;52.054;8.518;2023-03-04T12:56:00;101175.44;;;8.76;67.88
65716;BME280;63484;52.054;8.518;2023-03-04T13:01:06;101180.53;;;8.79;67.83
65716;BME280;63484;52.054;8.518;2023-03-04T13:06:17;101173.69;;;8.56;69.33
65716;BME280;63484;52.054;8.518;2023-03-04T13:11:44;101169.97;;;8.62;69.16
65716;BME280;63484;52.054;8.518;2023-03-04T13:16:47;101170.31;;;8.54;68.96
65716;BME280;63484;52.054;8.518;2023-03-04T13:21:49;101161.59;;;8.13;68.96
65716;BME280;63484;52.054;8.518;2023-03-04T13:26:54;101165.25;;;7.89;70.61
65716;BME280;63484;52.054;8.518;2023-03-04T13:31:57;101166.03;;;7.91;71.92
65716;BME280;63484;52.054;8.518;2023-03-04T13:36:59;101176.28;;;7.76;70.63
65716;BME280;63484;52.054;8.518;2023-03-04T13:42:39;101174.47;;;7.35;70.76
65716;BME280;63484;52.054;8.518;2023-03-04T13:47:46;101174.47;;;7.13;72.98
65716;BME280;63484;52.054;8.518;2023-03-04T13:52:48;101165.13;;;7.29;72.08
65716;BME280;63484;52.054;8.518;2023-03-04T13:57:52;101162.19;;;7.37;70.02
65716;BME280;63484;52.054;8.518;2023-03-04T14:02:53;101158.78;;;7.56;69.96
65716;BME280;63484;52.054;8.518;2023-03-04T14:07:55;101153.88;;;7.69;69.82
65716;BME280;63484;52.054;8.518;2023-03-04T14:12:59;101145.16;;;7.90;69.56
65716;BME280;63484;52.054;8.518;2023-03-04T14:18:02;101145.63;;;8.19;68.54
65716;BME280;63484;52.054;8.518;2023-03-04T14:23:21;101144.28;;;8.31;66.99
65716;BME280;63484;52.054;8.518;2023-03-04T14:28:24;101132.38;;;8.02;68.16
65716;BME280;63484;52.054;8.518;2023-03-04T14:33:28;101126.00;;;7.89;70.10
65716;BME280;63484;52.054;8.518;2023-03-04T14:38:32;101123.25;;;7.92;69.10
65716;BME280;63484;52.054;8.518;2023-03-04T14:43:39;101118.00;;;7.92;67.64
65716;BME280;63484;52.054;8.518;2023-03-04T14:48:47;101111.59;;;7.79;68.65
65716;BME280;63484;52.054;8.518;2023-03-04T14:53:53;101114.34;;;7.76;69.80
65716;BME280;63484;52.054;8.518;2023-03-04T14:58:57;101116.03;;;7.77;69.49
65716;BME280;63484;52.054;8.518;2023-03-04T15:04:01;101114.63;;;7.49;68.68
65716;BME280;63484;52.054;8.518;2023-03-04T15:09:04;101122.75;;;7.41;68.58
65716;BME280;63484;52.054;8.518;2023-03-04T15:14:43;101125.56;;;7.37;68.95
65716;BME280;63484;52.054;8.518;2023-03-04T15:19:44;101125.09;;;7.27;69.22
65716;BME280;63484;52.054;8.518;2023-03-04T15:24:46;101123.28;;;7.29;70.66
65716;BME280;63484;52.054;8.518;2023-03-04T15:29:50;101119.44;;;7.16;68.64
65716;BME280;63484;52.054;8.518;2023-03-04T15:34:55;101117.41;;;7.01;68.30
65716;BME280;63484;52.054;8.518;2023-03-04T15:39:56;101111.94;;;7.07;68.22
65716;BME280;63484;52.054;8.518;2023-03-04T15:45:00;101121.56;;;7.07;68.71
65716;BME280;63484;52.054;8.518;2023-03-04T15:50:01;101114.25;;;6.93;69.49
65716;BME280;63484;52.054;8.518;2023-03-04T15:55:03;101116.81;;;6.94;69.88
65716;BME280;63484;52.054;8.518;2023-03-04T16:00:10;101113.13;;;6.77;70.68
65716;BME280;63484;52.054;8.518;2023-03-04T16:05:12;101115.63;;;6.57;73.23
65716;BME280;63484;52.054;8.518;2023-03-04T16:10:18;101124.38;;;6.56;74.20
65716;BME280;63484;52.054;8.518;2023-03-04T16:15:24;101139.50;;;6.23;75.14
65716;BME280;63484;52.054;8.518;2023-03-04T16:20:27;101128.75;;;6.08;74.42
65716;BME280;63484;52.054;8.518;2023-03-04T16:25:30;101131.09;;;5.91;74.47
65716;BME280;63484;52.054;8.518;2023-03-04T16:30:32;101127.72;;;5.87;74.56
65716;BME280;63484;52.054;8.518;2023-03-04T16:35:35;101123.84;;;5.72;75.20
65716;BME280;63484;52.054;8.518;2023-03-04T16:40:37;101113.72;;;5.63;73.67
65716;BME280;63484;52.054;8.518;2023-03-04T16:45:40;101109.31;;;5.65;72.51
65716;BME280;63484;52.054;8.518;2023-03-04T16:50:43;101106.84;;;5.61;73.49
65716;BME280;63484;52.054;8.518;2023-03-04T16:55:44;101108.38;;;5.42;75.00
65716;BME280;63484;52.054;8.518;2023-03-04T17:00:47;101109.34;;;5.39;75.76
65716;BME280;63484;52.054;8.518;2023-03-04T17:05:48;101123.28;;;5.37;75.96
65716;BME280;63484;52.054;8.518;2023-03-04T17:10:50;101123.34;;;5.35;76.03
65716;BME280;63484;52.054;8.518;2023-03-04T17:15:53;101126.88;;;5.34;76.46
65716;BME280;63484;52.054;8.518;2023-03-04T17:21:00;101134.59;;;5.37;76.41
65716;BME280;63484;52.054;8.518;2023-03-04T17:26:03;101138.88;;;5.38;75.18
65716;BME280;63484;52.054;8.518;2023-03-04T17:31:09;101145.94;;;5.35;74.28
65716;BME280;63484;52.054;8.518;2023-03-04T17:36:11;101147.53;;;5.40;74.92
65716;BME280;63484;52.054;8.518;2023-03-04T17:41:14;101149.31;;;5.38;74.66
65716;BME280;63484;52.054;8.518;2023-03-04T17:46:21;101155.53;;;5.34;75.48
65716;BME280;63484;52.054;8.518;2023-03-04T17:51:34;101151.47;;;5.26;75.41
65716;BME280;63484;52.054;8.518;2023-03-04T17:56:37;101158.47;;;5.24;75.29
65716;BME280;63484;52.054;8.518;2023-03-04T18:01:40;101150.66;;;5.24;75.48
65716;BME280;63484;52.054;8.518;2023-03-04T18:06:41;101148.13;;;5.21;76.32
65716;BME280;63484;52.054;8.518;2023-03-04T18:11:43;101142.06;;;5.22;75.09
65716;BME280;63484;52.054;8.518;2023-03-04T18:16:46;101145.69;;;5.16;75.52
65716;BME280;63484;52.054;8.518;2023-03-04T18:21:47;101140.53;;;5.15;75.92
65716;BME280;63484;52.054;8.518;2023-03-04T18:26:49;101141.94;;;5.25;76.18
65716;BME280;63484;52.054;8.518;2023-03-04T18:31:53;101138.84;;;5.14;77.09
65716;BME280;63484;52.054;8.518;2023-03-04T18:36:54;101124.78;;;5.18;77.44
65716;BME280;63484;52.054;8.518;2023-03-04T18:41:56;101130.97;;;5.15;76.65
65716;BME280;63484;52.054;8.518;2023-03-04T18:47:00;101127.69;;;5.09;76.53
65716;BME280;63484;52.054;8.518;2023-03-04T18:52:02;101138.94;;;5.09;75.71
65716;BME280;63484;52.054;8.518;2023-03-04T18:57:08;101135.50;;;5.09;75.54
65716;BME280;63484;52.054;8.518;2023-03-04T19:02:15;101138.72;;;5.17;74.24
65716;BME280;63484;52.054;8.518;2023-03-04T19:07:19;101148.66;;;5.04;75.12
65716;BME280;63484;52.054;8.518;2023-03-04T19:12:20;101138.94;;;5.09;74.19
65716;BME280;63484;52.054;8.518;2023-03-04T19:17:23;101141.66;;;5.06;74.29
65716;BME280;63484;52.054;8.518;2023-03-04T19:22:27;101152.31;;;4.99;75.09
65716;BME280;63484;52.054;8.518;2023-03-04T19:27:29;101153.19;;;4.98;75.47
65716;BME280;63484;52.054;8.518;2023-03-04T19:32:33;101151.53;;;4.95;75.55
65716;BME280;63484;52.054;8.518;2023-03-04T19:37:34;101158.44;;;4.96;76.55
65716;BME280;63484;52.054;8.518;2023-03-04T19:42:36;101172.34;;;4.97;80.14
65716;BME280;63484;52.054;8.518;2023-03-04T19:47:39;101178.56;;;4.62;83.99
65716;BME280;63484;52.054;8.518;2023-03-04T19:52:41;101172.22;;;4.42;85.06
65716;BME280;63484;52.054;8.518;2023-03-04T19:57:42;101180.16;;;4.37;84.89
65716;BME280;63484;52.054;8.518;2023-03-04T20:02:45;101174.38;;;4.26;86.45
65716;BME280;63484;52.054;8.518;2023-03-04T20:07:51;101167.44;;;4.25;86.56
65716;BME280;63484;52.054;8.518;2023-03-04T20:12:53;101176.28;;;4.19;86.57
65716;BME280;63484;52.054;8.518;2023-03-04T20:17:56;101171.88;;;4.23;85.56
65716;BME280;63484;52.054;8.518;2023-03-04T20:22:57;101168.44;;;4.21;85.03
65716;BME280;63484;52.054;8.518;2023-03-04T20:27:59;101162.22;;;4.26;85.36
65716;BME280;63484;52.054;8.518;2023-03-04T20:33:02;101165.66;;;4.27;85.30
65716;BME280;63484;52.054;8.518;2023-03-04T20:38:03;101164.84;;;4.25;84.84
65716;BME280;63484;52.054;8.518;2023-03-04T20:43:05;101164.38;;;4.11;85.17
65716;BME280;63484;52.054;8.518;2023-03-04T20:48:07;101159.31;;;4.06;85.41
65716;BME280;63484;52.054;8.518;2023-03-04T20:53:09;101165.25;;;4.11;85.87
65716;BME280;63484;52.054;8.518;2023-03-04T20:58:13;101162.63;;;4.11;86.92
65716;BME280;63484;52.054;8.518;2023-03-04T21:03:15;101164.84;;;4.25;84.74
65716;BME280;63484;52.054;8.518;2023-03-04T21:08:17;101157.78;;;4.30;84.81
65716;BME280;63484;52.054;8.518;2023-03-04T21:13:18;101163.94;;;4.28;84.56
65716;BME280;63484;52.054;8.518;2023-03-04T21:18:24;101157.03;;;4.25;82.81
65716;BME280;63484;52.054;8.518;2023-03-04T21:23:25;101157.31;;;4.16;82.37
65716;BME280;63484;52.054;8.518;2023-03-04T21:28:27;101147.94;;;4.09;81.03
65716;BME280;63484;52.054;8.518;2023-03-04T21:33:32;101139.53;;;3.99;82.62
65716;BME280;63484;52.054;8.518;2023-03-04T21:38:35;101144.88;;;3.95;83.35
65716;BME280;63484;52.054;8.518;2023-03-04T21:43:37;101137.28;;;3.87;83.27
65716;BME280;63484;52.054;8.518;2023-03-04T21:48:40;101135.63;;;3.83;83.46
65716;BME280;63484;52.054;8.518;2023-03-04T21:53:43;101124.38;;;3.83;84.00
65716;BME280;63484;52.054;8.518;2023-03-04T21:58:45;101129.47;;;3.86;84.55
65716;BME280;63484;52.054;8.518;2023-03-04T22:03:48;101118.38;;;3.81;85.83
65716;BME280;63484;52.054;8.518;2023-03-04T22:08:53;101120.09;;;3.80;86.08
65716;BME280;63484;52.054;8.518;2023-03-04T22:13:56;101118.50;;;3.75;86.89
65716;BME280;63484;52.054;8.518;2023-03-04T22:18:59;101103.91;;;3.71;87.47
65716;BME280;63484;52.054;8.518;2023-03-04T22:24:00;101109.84;;;3.76;87.83
65716;BME280;63484;52.054;8.518;2023-03-04T22:29:03;101110.63;;;3.78;87.34
65716;BME280;63484;52.054;8.518;2023-03-04T22:34:07;101106.06;;;3.86;87.20
65716;BME280;63484;52.054;8.518;2023-03-04T22:39:11;101103.38;;;3.90;86.60
65716;BME280;63484;52.054;8.518;2023-03-04T22:44:13;101104.81;;;4.00;86.12
65716;BME280;63484;52.054;8.518;2023-03-04T22:49:16;101094.63;;;3.93;86.25
65716;BME280;63484;52.054;8.518;2023-03-04T22:54:17;101094.72;;;3.90;85.42
65716;BME280;63484;52.054;8.518;2023-03-04T22:59:19;101082.63;;;3.89;85.31
65716;BME280;63484;52.054;8.518;2023-03-04T23:04:22;101085.22;;;3.89;84.98
65716;BME280;63484;52.054;8.518;2023-03-04T23:09:23;101087.00;;;3.87;85.19
65716;BME280;63484;52.054;8.518;2023-03-04T23:14:24;101087.81;;;3.89;85.70
65716;BME280;63484;52.054;8.518;2023-03-04T23:19:27;101085.19;;;3.90;85.07
65716;BME280;63484;52.054;8.518;2023-03-04T23:24:28;101080.03;;;3.89;85.04
65716;BME280;63484;52.054;8.518;2023-03-04T23:29:30;101069.63;;;3.89;85.08
65716;BME280;63484;52.054;8.518;2023-03-04T23:34:32;101074.00;;;3.87;85.29
65716;BME280;63484;52.054;8.518;2023-03-04T23:39:35;101077.38;;;3.90;84.87
65716;BME280;63484;52.054;8.518;2023-03-04T23:44:37;101060.00;;;3.91;85.57
65716;BME280;63484;52.054;8.518;2023-03-04T23:49:39;101063.59;;;3.87;85.47
65716;BME280;63484;52.054;8.518;2023-03-04T23:54:41;101060.19;;;3.85;85.88
65716;BME280;63484;52.054;8.518;2023-03-04T23:59:42;101057.44;;;3.89;85.62
